Pulau Tioman — 3EYO9 — position and weather

sailwx.info

Track history (hours):
 
Tides and Currents Weather Stations Pressure Air Temp Water Temp Dewpoint Dewpoint Depression Visibility Wind Speed Wind Dir Waves Ship Positions

Pulau Tioman

Last reported at 2016-May-30 07:33 UTC. Time now 2016-Jun-29 05:44 UTC.
Position N 35°13' E 139°46'.
Warning: this ship's position is 29 days out of date.

Length 120 m; draft 5.4 m.

Type: Cargo ship. MMSI: 356613000.

Date/timePositionNaut miles runAvg speedWind from/ knotsBaromVisibWave heightAir tempDewpointWater temp
2016-May-30 07:33N 35°13' E 139°46'1212.0
2016-May-30 06:33N 35°24' E 139°42'3 2.8
2016-May-30 05:28N 35°27' E 139°41'0 0.0
2016-May-30 04:28N 35°27' E 139°41'0 0.0
2016-May-30 03:28N 35°27' E 139°41'0 0.0
2016-May-30 02:28N 35°27' E 139°41'0 0.0
2016-May-30 01:28N 35°27' E 139°41'0 0.0
2016-May-30 00:28N 35°27' E 139°41'0 0.0
2016-May-29 23:28N 35°27' E 139°41'0 0.0
2016-May-29 22:28N 35°27' E 139°41'2 2.0
2016-May-29 21:33N 35°26' E 139°42'0 0.3
2016-May-29 20:33N 35°25' E 139°42'0 0.1
2016-May-29 19:33N 35°25' E 139°42'0 0.0
2016-May-29 18:33N 35°25' E 139°42'0 0.1
2016-May-29 17:33N 35°25' E 139°42'0 0.1
2016-May-29 16:33N 35°25' E 139°42'0 0.0
2016-May-29 15:33N 35°25' E 139°42'0 0.1
2016-May-29 14:33N 35°25' E 139°42'0 0.0
2016-May-29 13:33N 35°25' E 139°42'0 0.0
2016-May-29 12:33N 35°25' E 139°42'0 0.0
2016-May-29 11:33N 35°25' E 139°42'0 0.0
2016-May-29 10:33N 35°25' E 139°42'0 0.0
2016-May-29 09:33N 35°25' E 139°42'0 0.1
2016-May-29 08:33N 35°25' E 139°42'1 0.5
2016-May-29 07:33N 35°25' E 139°42'6 6.0
2016-May-29 06:33N 35°19' E 139°43'1111.4
2016-May-29 05:33N 35°08' E 139°47'24311.1
2016-May-28 07:33N 34°14' E 134°58'1413.8
2016-May-28 06:33N 34°26' E 135°06'1413.6
2016-May-28 05:33N 34°37' E 135°17'5 4.4
2016-May-28 04:22N 34°42' E 135°15'0 0.0
2016-May-28 03:28N 34°42' E 135°15'0 0.0
2016-May-28 02:28N 34°42' E 135°15'0 0.0
2016-May-28 01:28N 34°42' E 135°15'0 0.0
2016-May-28 00:28N 34°42' E 135°15'0 0.0
2016-May-27 23:28N 34°42' E 135°15'0 0.0
2016-May-27 22:28N 34°42' E 135°15'0 0.0
2016-May-27 21:16N 34°42' E 135°15'0 0.0
2016-May-27 20:28N 34°42' E 135°15'0 0.0
2016-May-27 19:28N 34°42' E 135°15'0 0.0
2016-May-27 18:28N 34°42' E 135°15'0 0.0
2016-May-27 17:28N 34°42' E 135°15'0 0.0
2016-May-27 16:28N 34°42' E 135°15'0 0.0
2016-May-27 15:10N 34°42' E 135°15'0 0.0
2016-May-27 14:28N 34°42' E 135°15'0 0.0
2016-May-27 13:28N 34°42' E 135°15'0 0.0
2016-May-27 12:28N 34°42' E 135°15'0 0.0
2016-May-27 11:22N 34°42' E 135°15'0 0.0
2016-May-27 10:16N 34°42' E 135°15'0 0.0
2016-May-27 09:28N 34°42' E 135°15'0 0.0
2016-May-27 08:28N 34°42' E 135°15'0 0.0
2016-May-27 07:10N 34°42' E 135°15'0 0.0
2016-May-27 06:28N 34°42' E 135°15'0 0.0
2016-May-27 05:28N 34°42' E 135°15'0 0.0
2016-May-27 04:28N 34°42' E 135°15'0 0.0
2016-May-27 03:28N 34°42' E 135°15'0 0.0
2016-May-27 02:28N 34°42' E 135°15'0 0.1
2016-May-27 01:33N 34°42' E 135°15'4 4.4
2016-May-27 00:33N 34°37' E 135°14'0 0.1
2016-May-26 23:33N 34°37' E 135°14'0 0.1
2016-May-26 22:21N 34°37' E 135°14'0 0.1
2016-May-26 21:33N 34°37' E 135°14'0 0.1
2016-May-26 20:33N 34°37' E 135°14'0 0.1
2016-May-26 19:33N 34°37' E 135°14'0 0.1
2016-May-26 18:33N 34°37' E 135°14'0 0.0
2016-May-26 17:33N 34°37' E 135°14'0 0.0
2016-May-26 16:33N 34°37' E 135°14'2 2.2
2016-May-26 15:33N 34°35' E 135°13'9 8.8
2016-May-26 14:33N 34°36' E 135°02'  
2016-May-20 10:29N 34°37' E 134°56'1313.9
2016-May-20 09:33N 34°36' E 135°12'6 5.5
2016-May-20 08:27N 34°41' E 135°15'  
Track history (hours):
 
Tides and Currents Weather Stations Pressure Air Temp Water Temp Dewpoint Dewpoint Depression Visibility Wind Speed Wind Dir Waves Ship Positions

Pulau Tioman

Last reported at 2016-May-30 07:33 UTC. Time now 2016-Jun-29 05:44 UTC.
Position N 35°13' E 139°46'.
Warning: this ship's position is 29 days out of date.

Length 120 m; draft 5.4 m.

Type: Cargo ship. MMSI: 356613000.

Date/timePositionNaut miles runAvg speedWind from/ knotsBaromVisibWave heightAir tempDewpointWater temp
2016-May-30 07:33N 35°13' E 139°46'1212.0
2016-May-30 06:33N 35°24' E 139°42'3 2.8
2016-May-30 05:28N 35°27' E 139°41'0 0.0
2016-May-30 04:28N 35°27' E 139°41'0 0.0
2016-May-30 03:28N 35°27' E 139°41'0 0.0
2016-May-30 02:28N 35°27' E 139°41'0 0.0
2016-May-30 01:28N 35°27' E 139°41'0 0.0
2016-May-30 00:28N 35°27' E 139°41'0 0.0
2016-May-29 23:28N 35°27' E 139°41'0 0.0
2016-May-29 22:28N 35°27' E 139°41'2 2.0
2016-May-29 21:33N 35°26' E 139°42'0 0.3
2016-May-29 20:33N 35°25' E 139°42'0 0.1
2016-May-29 19:33N 35°25' E 139°42'0 0.0
2016-May-29 18:33N 35°25' E 139°42'0 0.1
2016-May-29 17:33N 35°25' E 139°42'0 0.1
2016-May-29 16:33N 35°25' E 139°42'0 0.0
2016-May-29 15:33N 35°25' E 139°42'0 0.1
2016-May-29 14:33N 35°25' E 139°42'0 0.0
2016-May-29 13:33N 35°25' E 139°42'0 0.0
2016-May-29 12:33N 35°25' E 139°42'0 0.0
2016-May-29 11:33N 35°25' E 139°42'0 0.0
2016-May-29 10:33N 35°25' E 139°42'0 0.0
2016-May-29 09:33N 35°25' E 139°42'0 0.1
2016-May-29 08:33N 35°25' E 139°42'1 0.5
2016-May-29 07:33N 35°25' E 139°42'6 6.0
2016-May-29 06:33N 35°19' E 139°43'1111.4
2016-May-29 05:33N 35°08' E 139°47'24311.1
2016-May-28 07:33N 34°14' E 134°58'1413.8
2016-May-28 06:33N 34°26' E 135°06'1413.6
2016-May-28 05:33N 34°37' E 135°17'5 4.4
2016-May-28 04:22N 34°42' E 135°15'0 0.0
2016-May-28 03:28N 34°42' E 135°15'0 0.0
2016-May-28 02:28N 34°42' E 135°15'0 0.0
2016-May-28 01:28N 34°42' E 135°15'0 0.0
2016-May-28 00:28N 34°42' E 135°15'0 0.0
2016-May-27 23:28N 34°42' E 135°15'0 0.0
2016-May-27 22:28N 34°42' E 135°15'0 0.0
2016-May-27 21:16N 34°42' E 135°15'0 0.0
2016-May-27 20:28N 34°42' E 135°15'0 0.0
2016-May-27 19:28N 34°42' E 135°15'0 0.0
2016-May-27 18:28N 34°42' E 135°15'0 0.0
2016-May-27 17:28N 34°42' E 135°15'0 0.0
2016-May-27 16:28N 34°42' E 135°15'0 0.0
2016-May-27 15:10N 34°42' E 135°15'0 0.0
2016-May-27 14:28N 34°42' E 135°15'0 0.0
2016-May-27 13:28N 34°42' E 135°15'0 0.0
2016-May-27 12:28N 34°42' E 135°15'0 0.0
2016-May-27 11:22N 34°42' E 135°15'0 0.0
2016-May-27 10:16N 34°42' E 135°15'0 0.0
2016-May-27 09:28N 34°42' E 135°15'0 0.0
2016-May-27 08:28N 34°42' E 135°15'0 0.0
2016-May-27 07:10N 34°42' E 135°15'0 0.0
2016-May-27 06:28N 34°42' E 135°15'0 0.0
2016-May-27 05:28N 34°42' E 135°15'0 0.0
2016-May-27 04:28N 34°42' E 135°15'0 0.0
2016-May-27 03:28N 34°42' E 135°15'0 0.0
2016-May-27 02:28N 34°42' E 135°15'0 0.1
2016-May-27 01:33N 34°42' E 135°15'4 4.4
2016-May-27 00:33N 34°37' E 135°14'0 0.1
2016-May-26 23:33N 34°37' E 135°14'0 0.1
2016-May-26 22:21N 34°37' E 135°14'0 0.1
2016-May-26 21:33N 34°37' E 135°14'0 0.1
2016-May-26 20:33N 34°37' E 135°14'0 0.1
2016-May-26 19:33N 34°37' E 135°14'0 0.1
2016-May-26 18:33N 34°37' E 135°14'0 0.0
2016-May-26 17:33N 34°37' E 135°14'0 0.0
2016-May-26 16:33N 34°37' E 135°14'2 2.2
2016-May-26 15:33N 34°35' E 135°13'9 8.8
2016-May-26 14:33N 34°36' E 135°02'  
2016-May-20 10:29N 34°37' E 134°56'1313.9
2016-May-20 09:33N 34°36' E 135°12'6 5.5
2016-May-20 08:27N 34°41' E 135°15'  

Dump ship's entire track history